Time;durP1;ratioP1;P1;durP2;ratioP2;P2;SDS_P1;SDS_P2;PMS_P1;PMS_P2;Temp;Humidity;BMP_temperature;BMP_pressure;BME280_temperature;BME280_humidity;BME280_pressure;Samples;Min_cycle;Max_cycle;Signal;HPM_P1;HPM_P2
2023/09/08 00:01:44;;;;;;;19.90;8.77;;;16.00;99.90;;;;;;4409261;28;658661;-68
2023/09/08 00:04:32;;;;;;;15.10;8.87;;;16.00;99.90;;;;;;4407087;28;657524;-70
2023/09/08 00:07:20;;;;;;;14.70;8.80;;;16.00;99.90;;;;;;4388408;28;658380;-70
2023/09/08 00:10:08;;;;;;;15.43;9.07;;;15.90;99.90;;;;;;4412546;28;658661;-69
2023/09/08 00:12:55;;;;;;;16.37;8.93;;;15.90;99.90;;;;;;4373653;28;658552;-70
2023/09/08 00:15:42;;;;;;;12.20;8.10;;;15.90;99.90;;;;;;4391767;28;657443;-69
2023/09/08 00:18:31;;;;;;;16.27;9.17;;;15.80;99.90;;;;;;4421928;28;658434;-69
2023/09/08 00:21:18;;;;;;;12.90;8.03;;;15.80;99.90;;;;;;4409881;28;657420;-69
2023/09/08 00:24:06;;;;;;;16.57;8.50;;;15.80;99.90;;;;;;4411365;28;658724;-69
2023/09/08 00:26:53;;;;;;;15.00;8.67;;;15.80;99.90;;;;;;4395279;28;657524;-69
2023/09/08 00:29:40;;;;;;;18.87;8.47;;;15.80;99.90;;;;;;4417434;28;658438;-70
2023/09/08 00:32:27;;;;;;;18.67;8.47;;;15.70;99.90;;;;;;4396162;28;657513;-68
2023/09/08 00:35:16;;;;;;;17.13;8.77;;;15.70;99.90;;;;;;4422251;28;657896;-69
2023/09/08 00:38:03;;;;;;;14.00;8.17;;;15.70;99.90;;;;;;4392346;28;657552;-69
2023/09/08 00:40:51;;;;;;;19.60;7.87;;;15.70;99.90;;;;;;4414638;28;658252;-69
2023/09/08 00:43:38;;;;;;;14.97;8.13;;;15.70;99.90;;;;;;4388753;28;657513;-70
2023/09/08 00:46:27;;;;;;;13.43;8.20;;;15.60;99.90;;;;;;4407015;28;657904;-70
2023/09/08 00:49:14;;;;;;;17.07;8.17;;;15.60;99.90;;;;;;4391349;28;657607;-69
2023/09/08 00:52:03;;;;;;;13.33;7.63;;;15.60;99.90;;;;;;4409713;28;657390;-69
2023/09/08 00:54:50;;;;;;;15.97;8.20;;;15.60;99.90;;;;;;4377248;28;659326;-70
2023/09/08 00:57:37;;;;;;;15.73;8.20;;;15.60;99.90;;;;;;4401947;28;657885;-69
2023/09/08 01:00:25;;;;;;;15.27;8.20;;;15.60;99.90;;;;;;4418533;28;659141;-70
2023/09/08 01:03:12;;;;;;;14.30;7.50;;;15.60;99.90;;;;;;4410287;28;657629;-69
2023/09/08 01:05:59;;;;;;;18.43;8.63;;;15.60;99.90;;;;;;4380560;28;658861;-70
2023/09/08 01:08:48;;;;;;;16.80;8.37;;;15.50;99.90;;;;;;4411456;28;658261;-70
2023/09/08 01:11:35;;;;;;;17.10;8.30;;;15.50;99.90;;;;;;4389770;28;658261;-69
2023/09/08 01:14:22;;;;;;;13.10;8.20;;;15.50;99.90;;;;;;4394300;28;657637;-68
2023/09/08 01:17:10;;;;;;;13.27;8.10;;;15.40;99.90;;;;;;4434309;28;657686;-70
2023/09/08 01:19:58;;;;;;;15.67;8.47;;;15.40;99.90;;;;;;4429441;28;657503;-69
2023/09/08 01:23:11;;;;;;;15.00;8.50;;;15.40;99.90;;;;;;4433604;28;659200;-70
2023/09/08 01:26:02;;;;;;;15.40;8.00;;;15.40;99.90;;;;;;4384008;28;657653;-69
2023/09/08 01:28:50;;;;;;;15.57;8.17;;;15.40;99.90;;;;;;4396020;28;659182;-70
2023/09/08 01:31:38;;;;;;;17.23;8.70;;;15.40;99.90;;;;;;4387813;28;658776;-68
2023/09/08 01:34:25;;;;;;;15.47;8.23;;;15.40;99.90;;;;;;4412673;28;659403;-69
2023/09/08 01:37:12;;;;;;;13.57;7.87;;;15.40;99.90;;;;;;4397884;28;657957;-68
2023/09/08 01:40:00;;;;;;;13.23;8.00;;;15.30;99.90;;;;;;4421975;28;657895;-70
2023/09/08 01:42:49;;;;;;;13.77;8.10;;;15.40;99.90;;;;;;4408018;28;657463;-68
2023/09/08 01:45:36;;;;;;;13.50;8.23;;;15.40;99.90;;;;;;4401351;28;658676;-70
2023/09/08 01:48:23;;;;;;;16.93;8.77;;;15.30;99.90;;;;;;4391653;28;657962;-69
2023/09/08 01:51:11;;;;;;;18.20;8.27;;;15.30;99.90;;;;;;4409689;28;658127;-69
2023/09/08 01:53:58;;;;;;;13.80;8.27;;;15.30;99.90;;;;;;4391857;28;658189;-69
2023/09/08 01:56:45;;;;;;;16.83;8.70;;;15.30;99.90;;;;;;4406582;28;658834;-69
2023/09/08 01:59:34;;;;;;;15.43;9.13;;;15.30;99.90;;;;;;4393518;28;658113;-68
2023/09/08 02:02:21;;;;;;;14.30;8.77;;;15.30;99.90;;;;;;4411893;28;657673;-69
2023/09/08 02:05:09;;;;;;;15.30;8.90;;;15.30;99.90;;;;;;4375262;28;657777;-69
2023/09/08 02:07:57;;;;;;;17.43;8.70;;;15.30;99.90;;;;;;4397185;28;657889;-70
2023/09/08 02:10:44;;;;;;;20.07;9.37;;;15.30;99.90;;;;;;4379687;28;658384;-70
2023/09/08 02:13:31;;;;;;;16.20;8.87;;;15.30;99.90;;;;;;4389838;28;658059;-70
2023/09/08 02:16:20;;;;;;;20.63;9.50;;;15.30;99.90;;;;;;4374848;28;657260;-70
2023/09/08 02:19:07;;;;;;;17.57;9.00;;;15.30;99.90;;;;;;4392160;28;658155;-69
2023/09/08 02:21:55;;;;;;;16.50;9.10;;;15.30;99.90;;;;;;4399212;28;656617;-70
2023/09/08 02:24:42;;;;;;;16.63;8.57;;;15.20;99.90;;;;;;4403571;28;657441;-70
2023/09/08 02:27:29;;;;;;;18.23;9.17;;;15.20;99.90;;;;;;4374924;28;658729;-70
2023/09/08 02:30:16;;;;;;;20.00;9.43;;;15.20;99.90;;;;;;4397050;28;658282;-70
2023/09/08 02:33:05;;;;;;;14.60;9.10;;;15.20;99.90;;;;;;4379398;28;658093;-70
2023/09/08 02:35:52;;;;;;;14.83;9.07;;;15.20;99.90;;;;;;4376255;28;657491;-68
2023/09/08 02:38:40;;;;;;;15.77;9.17;;;15.10;99.90;;;;;;4400873;28;657714;-70
2023/09/08 02:41:27;;;;;;;15.47;9.43;;;15.10;99.90;;;;;;4401797;28;658504;-70
2023/09/08 02:44:14;;;;;;;12.73;8.57;;;15.10;99.90;;;;;;4377507;28;658376;-69
2023/09/08 02:47:01;;;;;;;17.73;9.43;;;15.10;99.90;;;;;;4396293;28;657861;-70
2023/09/08 02:49:50;;;;;;;15.10;9.60;;;15.10;99.90;;;;;;4377841;28;657871;-69
2023/09/08 02:52:37;;;;;;;14.33;8.43;;;15.10;99.90;;;;;;4397433;28;657280;-70
2023/09/08 02:55:24;;;;;;;16.13;9.40;;;15.00;99.90;;;;;;4376807;28;658628;-69
2023/09/08 02:58:11;;;;;;;16.37;9.57;;;15.00;99.90;;;;;;4396109;28;657590;-70
2023/09/08 03:00:59;;;;;;;16.50;9.33;;;15.10;99.90;;;;;;4378186;28;657679;-69
2023/09/08 03:03:46;;;;;;;15.63;9.20;;;15.00;99.90;;;;;;4392628;28;658601;-70
2023/09/08 03:06:36;;;;;;;19.57;9.83;;;15.00;99.90;;;;;;4366006;28;657875;-70
2023/09/08 03:09:23;;;;;;;19.03;9.53;;;15.00;99.90;;;;;;4392089;28;658022;-70
2023/09/08 03:12:10;;;;;;;21.20;8.63;;;15.00;99.90;;;;;;4394871;28;659167;-70
2023/09/08 03:14:57;;;;;;;16.10;9.27;;;14.90;99.90;;;;;;4372928;28;657528;-69
2023/09/08 03:17:45;;;;;;;17.83;9.87;;;15.00;99.90;;;;;;4380192;28;658175;-69
2023/09/08 03:20:32;;;;;;;18.37;9.43;;;14.90;99.90;;;;;;4383320;28;657469;-69
2023/09/08 03:23:21;;;;;;;14.67;8.57;;;14.90;99.90;;;;;;4402863;28;657938;-70
2023/09/08 03:26:08;;;;;;;15.53;9.17;;;14.90;99.90;;;;;;4384512;28;657593;-70
2023/09/08 03:28:56;;;;;;;15.33;9.10;;;14.90;99.90;;;;;;4394551;28;658970;-70
2023/09/08 03:31:43;;;;;;;18.60;9.73;;;14.90;99.90;;;;;;4375574;28;657488;-69
2023/09/08 03:34:30;;;;;;;20.13;9.70;;;14.90;99.90;;;;;;4396744;28;658927;-70
2023/09/08 03:37:17;;;;;;;16.73;9.53;;;14.90;99.90;;;;;;4381016;28;657674;-69
2023/09/08 03:40:07;;;;;;;13.83;9.47;;;14.90;99.90;;;;;;4394094;28;658182;-70
2023/09/08 03:42:54;;;;;;;15.00;9.37;;;14.80;99.90;;;;;;4361153;28;658824;-70
2023/09/08 03:45:42;;;;;;;17.33;10.00;;;14.80;99.90;;;;;;4380008;28;657393;-70
2023/09/08 03:48:29;;;;;;;17.40;9.53;;;14.80;99.90;;;;;;4363633;28;659440;-70
2023/09/08 03:51:16;;;;;;;18.27;9.50;;;14.70;99.90;;;;;;4378456;28;658754;-70
2023/09/08 03:54:04;;;;;;;13.93;9.13;;;14.70;99.90;;;;;;4378523;28;658401;-70
2023/09/08 03:56:52;;;;;;;14.90;9.50;;;14.70;99.90;;;;;;4400488;28;658398;-70
2023/09/08 03:59:39;;;;;;;18.07;9.60;;;14.70;99.90;;;;;;4361320;28;658708;-70
2023/09/08 04:02:27;;;;;;;17.23;9.40;;;14.60;99.90;;;;;;4379147;28;657773;-70
2023/09/08 04:05:14;;;;;;;16.83;9.60;;;14.60;99.90;;;;;;4370670;28;658073;-70
2023/09/08 04:08:01;;;;;;;18.63;9.73;;;14.60;99.90;;;;;;4393503;28;657516;-70
2023/09/08 04:10:48;;;;;;;17.70;9.57;;;14.60;99.90;;;;;;4381188;28;658534;-70
2023/09/08 04:13:37;;;;;;;18.15;10.00;;;14.50;99.90;;;;;;4403029;28;658696;-70
2023/09/08 04:16:24;;;;;;;15.27;9.70;;;14.50;99.90;;;;;;4369158;28;659581;-70
2023/09/08 04:19:11;;;;;;;17.50;10.93;;;14.60;99.90;;;;;;4393189;28;657548;-70
2023/09/08 04:21:58;;;;;;;20.40;10.20;;;14.60;99.90;;;;;;4375411;28;658508;-70
2023/09/08 04:24:46;;;;;;;19.00;10.77;;;14.60;99.90;;;;;;4393459;28;658954;-70
2023/09/08 04:27:34;;;;;;;19.87;10.90;;;14.60;99.90;;;;;;4373565;28;658552;-70
2023/09/08 04:30:23;;;;;;;23.80;11.23;;;14.70;99.90;;;;;;4393001;28;659033;-70
2023/09/08 04:33:10;;;;;;;20.27;11.10;;;14.70;99.90;;;;;;4368599;28;659429;-70
2023/09/08 04:35:57;;;;;;;18.45;10.40;;;14.80;99.90;;;;;;4374689;28;658689;-69
2023/09/08 04:38:45;;;;;;;23.30;10.83;;;14.90;99.90;;;;;;4388049;28;659494;-70
2023/09/08 04:41:32;;;;;;;18.47;10.50;;;14.90;99.90;;;;;;4378466;28;658684;-69
2023/09/08 04:44:20;;;;;;;19.57;10.40;;;14.90;99.90;;;;;;4391677;28;659546;-70
2023/09/08 04:47:09;;;;;;;18.50;10.50;;;14.90;99.90;;;;;;4389178;28;658952;-69
2023/09/08 04:49:56;;;;;;;18.83;10.40;;;15.00;99.90;;;;;;4397751;28;657958;-70
2023/09/08 04:52:43;;;;;;;16.23;10.57;;;15.10;99.90;;;;;;4374157;28;659096;-69
2023/09/08 04:55:30;;;;;;;16.77;10.23;;;15.20;99.90;;;;;;4398600;28;658937;-70
2023/09/08 04:58:18;;;;;;;19.37;11.10;;;15.20;99.90;;;;;;4372436;28;658547;-69
2023/09/08 05:01:05;;;;;;;17.80;10.20;;;15.30;99.90;;;;;;4390018;28;659793;-69
2023/09/08 05:03:55;;;;;;;18.13;10.70;;;15.40;99.90;;;;;;4374888;28;659441;-69
2023/09/08 05:06:42;;;;;;;18.67;9.90;;;15.50;99.90;;;;;;4387737;28;658396;-70
2023/09/08 05:09:30;;;;;;;18.03;10.97;;;15.60;99.90;;;;;;4385750;28;658617;-69
2023/09/08 05:12:17;;;;;;;21.83;11.00;;;15.70;99.90;;;;;;4389268;28;658340;-69
2023/09/08 05:15:06;;;;;;;20.77;11.20;;;15.80;99.90;;;;;;4375486;28;662057;-70
2023/09/08 05:17:54;;;;;;;17.33;10.50;;;15.90;99.90;;;;;;4373901;28;658602;-70
2023/09/08 05:20:42;;;;;;;21.50;11.73;;;16.10;99.90;;;;;;4394345;28;659803;-70
2023/09/08 05:23:29;;;;;;;14.97;10.17;;;16.10;99.90;;;;;;4363881;28;660757;-70
2023/09/08 05:26:16;;;;;;;21.60;11.17;;;16.30;99.90;;;;;;4400594;28;659583;-70
2023/09/08 05:29:04;;;;;;;22.93;11.17;;;16.40;99.90;;;;;;4368980;28;659703;-70
2023/09/08 05:31:51;;;;;;;20.13;11.37;;;16.50;99.90;;;;;;4388576;28;659312;-70
2023/09/08 05:34:38;;;;;;;20.23;11.37;;;16.60;99.90;;;;;;4370319;28;658761;-70
2023/09/08 05:37:27;;;;;;;17.27;10.57;;;16.80;99.90;;;;;;4393349;28;659764;-70
2023/09/08 05:40:14;;;;;;;21.63;10.90;;;16.90;99.90;;;;;;4386905;28;659356;-69
2023/09/08 05:43:02;;;;;;;18.60;11.40;;;17.00;99.90;;;;;;4393695;28;658580;-70
2023/09/08 05:45:49;;;;;;;19.57;10.37;;;17.20;99.90;;;;;;4373424;28;658961;-70
2023/09/08 05:48:36;;;;;;;16.60;10.80;;;17.30;99.90;;;;;;4388724;28;659235;-70
2023/09/08 05:51:23;;;;;;;20.80;10.77;;;17.40;99.90;;;;;;4373104;28;658641;-69
2023/09/08 05:54:12;;;;;;;19.03;10.47;;;17.60;99.90;;;;;;4396975;28;659628;-69
2023/09/08 05:56:59;;;;;;;21.83;10.43;;;17.70;99.90;;;;;;4375799;28;659062;-70
2023/09/08 05:59:46;;;;;;;17.07;10.37;;;17.80;99.90;;;;;;4397264;28;659191;-69
2023/09/08 06:02:33;;;;;;;19.03;9.87;;;17.90;99.90;;;;;;4378571;28;659213;-70
2023/09/08 06:05:21;;;;;;;21.40;10.37;;;18.00;99.90;;;;;;4426135;28;659314;-70
2023/09/08 06:08:08;;;;;;;15.53;9.97;;;18.10;99.90;;;;;;4393432;28;658924;-69
2023/09/08 06:10:56;;;;;;;19.03;9.93;;;18.20;99.90;;;;;;4416628;28;658921;-70
2023/09/08 06:13:44;;;;;;;27.67;11.00;;;18.30;99.90;;;;;;4384351;28;657561;-69
2023/09/08 06:16:31;;;;;;;28.27;10.50;;;18.40;99.90;;;;;;4413355;28;658963;-69
2023/09/08 06:19:18;;;;;;;22.57;10.90;;;18.50;99.90;;;;;;4391036;28;659139;-70
2023/09/08 06:22:05;;;;;;;19.23;9.63;;;18.60;99.90;;;;;;4411211;28;658559;-70
2023/09/08 06:24:53;;;;;;;21.63;9.88;;;18.70;99.90;;;;;;4386271;28;658266;-69
2023/09/08 06:27:41;;;;;;;17.07;9.70;;;18.80;99.90;;;;;;4411337;28;658870;-70
2023/09/08 06:30:28;;;;;;;17.43;10.00;;;18.90;99.90;;;;;;4393101;28;657725;-70
2023/09/08 06:33:16;;;;;;;19.10;10.27;;;19.00;99.90;;;;;;4411676;28;660061;-70
2023/09/08 06:36:03;;;;;;;15.83;10.00;;;19.10;99.90;;;;;;4402853;28;658726;-69
2023/09/08 06:38:50;;;;;;;16.63;9.60;;;19.20;99.90;;;;;;4412636;28;659701;-72
2023/09/08 06:41:37;;;;;;;21.57;9.90;;;19.30;99.90;;;;;;4390112;28;657569;-69
2023/09/08 06:44:26;;;;;;;18.17;9.27;;;19.40;99.90;;;;;;4404776;28;658411;-70
2023/09/08 06:47:13;;;;;;;19.40;10.13;;;19.50;99.90;;;;;;4376225;28;657573;-71
2023/09/08 06:50:00;;;;;;;18.47;9.60;;;19.60;99.90;;;;;;4393525;28;660294;-70
2023/09/08 06:52:48;;;;;;;17.97;10.20;;;19.70;99.90;;;;;;4400738;28;657335;-69
2023/09/08 06:55:35;;;;;;;16.80;9.73;;;19.90;99.90;;;;;;4419347;28;660503;-70
2023/09/08 06:58:22;;;;;;;16.33;9.20;;;20.00;99.90;;;;;;4418458;28;657373;-69
2023/09/08 07:01:11;;;;;;;18.20;9.90;;;20.10;99.90;;;;;;4415500;28;657381;-69
2023/09/08 07:03:58;;;;;;;14.20;8.60;;;20.20;99.90;;;;;;4390158;28;657972;-70
2023/09/08 07:06:46;;;;;;;20.80;9.77;;;20.30;99.90;;;;;;4394709;28;657808;-70
2023/09/08 07:09:33;;;;;;;17.30;9.60;;;20.30;99.90;;;;;;4376245;28;657212;-70
2023/09/08 07:12:20;;;;;;;16.13;8.83;;;20.40;99.90;;;;;;4412101;28;658553;-70
2023/09/08 07:15:09;;;;;;;16.27;9.30;;;20.60;99.90;;;;;;4401458;28;657760;-68
2023/09/08 07:17:58;;;;;;;15.50;8.77;;;20.60;99.90;;;;;;4403979;28;657852;-69
2023/09/08 07:20:47;;;;;;;20.17;9.97;;;20.70;99.90;;;;;;4375656;28;658158;-70
2023/09/08 07:23:36;;;;;;;15.40;9.13;;;20.80;99.90;;;;;;4375628;28;659085;-70
2023/09/08 07:26:23;;;;;;;18.00;9.80;;;20.90;99.90;;;;;;4376224;28;657626;-70
2023/09/08 07:29:11;;;;;;;14.30;8.73;;;21.00;99.90;;;;;;4422864;28;658730;-70
2023/09/08 07:31:59;;;;;;;18.50;8.90;;;21.10;99.90;;;;;;4382254;28;658232;-70
2023/09/08 07:34:54;;;;;;;16.27;9.17;;;21.20;99.90;;;;;;4405867;28;659605;-71
2023/09/08 07:37:41;;;;;;;13.93;8.70;;;21.40;99.90;;;;;;4391179;28;658484;-70
2023/09/08 07:40:29;;;;;;;15.40;8.97;;;21.60;99.90;;;;;;4393818;28;657745;-69
2023/09/08 07:43:16;;;;;;;14.33;9.20;;;21.70;99.90;;;;;;4412239;28;659247;-70
2023/09/08 07:46:03;;;;;;;14.83;9.00;;;21.80;99.90;;;;;;4402096;28;657192;-70
2023/09/08 07:48:50;;;;;;;15.40;9.30;;;21.90;99.90;;;;;;4432559;28;658133;-70
2023/09/08 07:51:39;;;;;;;20.13;9.60;;;22.00;99.90;;;;;;4408974;28;658252;-69
2023/09/08 07:54:26;;;;;;;15.20;9.13;;;22.10;99.90;;;;;;4413786;28;658158;-70
2023/09/08 07:57:13;;;;;;;18.73;10.50;;;22.30;99.90;;;;;;4388926;28;657483;-70
2023/09/08 08:00:01;;;;;;;19.53;9.13;;;22.40;99.90;;;;;;4414978;28;658649;-70
2023/09/08 08:02:48;;;;;;;16.27;9.50;;;22.60;99.90;;;;;;4387394;28;658000;-70
2023/09/08 08:05:36;;;;;;;16.93;9.13;;;22.80;99.90;;;;;;4379162;28;659148;-70
2023/09/08 08:08:24;;;;;;;16.97;9.00;;;23.00;99.90;;;;;;4382028;28;658517;-70
2023/09/08 08:11:12;;;;;;;15.97;8.63;;;23.20;99.90;;;;;;4402993;28;657133;-70
2023/09/08 08:13:59;;;;;;;19.10;9.07;;;23.40;99.90;;;;;;4382912;28;657538;-70
2023/09/08 08:16:46;;;;;;;12.75;7.50;;;23.50;99.90;;;;;;4392652;28;657901;-69
2023/09/08 08:19:33;;;;;;;14.93;8.50;;;23.70;99.90;;;;;;4371198;28;657667;-71
2023/09/08 08:22:21;;;;;;;12.23;7.85;;;23.90;99.90;;;;;;4388921;28;657871;-70
2023/09/08 08:25:09;;;;;;;14.20;7.32;;;24.00;99.90;;;;;;4373153;28;657440;-70
2023/09/08 08:27:58;;;;;;;15.88;7.78;;;24.10;99.90;;;;;;4391370;28;657426;-70
2023/09/08 08:30:47;;;;;;;10.95;7.80;;;24.10;99.90;;;;;;4367674;28;659186;-69
2023/09/08 08:33:34;;;;;;;16.50;8.10;;;24.20;99.90;;;;;;4374180;28;657605;-70
2023/09/08 08:36:21;;;;;;;11.95;7.55;;;24.50;99.90;;;;;;4397542;28;657669;-70
2023/09/08 08:39:08;;;;;;;16.65;7.63;;;24.50;99.90;;;;;;4373880;28;657765;-70
2023/09/08 08:41:57;;;;;;;12.63;7.63;;;24.20;99.90;;;;;;4393348;28;658754;-70
2023/09/08 08:44:45;;;;;;;11.75;7.22;;;24.30;99.90;;;;;;4371473;28;658701;-70
2023/09/08 08:47:32;;;;;;;15.88;7.68;;;24.60;99.90;;;;;;4372583;28;657976;-69
2023/09/08 08:50:20;;;;;;;14.15;7.30;;;24.90;99.90;;;;;;4397535;28;657812;-70
2023/09/08 08:53:07;;;;;;;14.43;6.80;;;25.30;99.90;;;;;;4375299;28;658637;-68
2023/09/08 08:55:55;;;;;;;13.55;6.80;;;25.40;99.90;;;;;;4397312;28;658395;-70
2023/09/08 08:58:45;;;;;;;12.15;6.93;;;25.50;99.90;;;;;;4388614;28;657180;-69
2023/09/08 09:01:32;;;;;;;12.02;7.30;;;25.50;99.90;;;;;;4397447;28;658030;-70
2023/09/08 09:04:20;;;;;;;13.68;7.25;;;25.70;99.90;;;;;;4411005;28;658503;-71
2023/09/08 09:07:08;;;;;;;16.58;7.60;;;25.90;99.90;;;;;;4404127;28;658094;-68
2023/09/08 09:09:55;;;;;;;10.25;6.30;;;25.80;99.90;;;;;;4420839;28;658315;-70
2023/09/08 09:12:42;;;;;;;14.23;7.78;;;25.80;99.90;;;;;;4396693;28;657554;-69
2023/09/08 09:15:32;;;;;;;12.30;7.43;;;25.90;99.90;;;;;;4413883;28;658638;-70
2023/09/08 09:18:19;;;;;;;9.93;6.63;;;26.10;99.90;;;;;;4398649;28;657768;-70
2023/09/08 09:21:06;;;;;;;15.73;6.90;;;26.30;99.90;;;;;;4395534;28;656488;-70
2023/09/08 09:23:54;;;;;;;11.57;7.18;;;26.30;99.90;;;;;;4391126;28;657234;-70
2023/09/08 09:26:41;;;;;;;10.10;6.72;;;26.40;99.90;;;;;;4407081;28;657170;-70
2023/09/08 09:29:29;;;;;;;11.00;5.78;;;26.30;99.90;;;;;;4387981;28;657904;-70
2023/09/08 09:32:17;;;;;;;11.70;6.90;;;26.50;97.60;;;;;;4410298;28;658013;-70
2023/09/08 09:35:06;;;;;;;17.45;6.72;;;26.60;94.50;;;;;;4387844;28;658410;-70
2023/09/08 09:37:54;;;;;;;9.38;6.38;;;26.70;93.50;;;;;;4387343;28;657643;-69
2023/09/08 09:40:41;;;;;;;11.70;6.45;;;26.80;90.10;;;;;;4411153;28;656608;-70
2023/09/08 09:43:29;;;;;;;12.27;6.38;;;27.00;91.40;;;;;;4394697;28;657863;-70
2023/09/08 09:46:16;;;;;;;14.63;6.32;;;27.30;87.50;;;;;;4396407;28;657461;-70
2023/09/08 09:49:05;;;;;;;12.35;5.97;;;27.40;80.40;;;;;;4403012;28;657688;-70
2023/09/08 09:51:54;;;;;;;10.55;5.78;;;27.60;81.20;;;;;;4416000;28;657589;-68
2023/09/08 09:54:41;;;;;;;13.48;5.78;;;27.80;75.00;;;;;;4393094;28;657810;-70
2023/09/08 09:57:29;;;;;;;9.38;5.25;;;28.10;80.70;;;;;;4384255;28;657807;-69
2023/09/08 10:00:17;;;;;;;14.15;5.57;;;28.40;76.40;;;;;;4406714;28;656570;-70
2023/09/08 10:03:04;;;;;;;7.65;5.75;;;28.50;66.00;;;;;;4388798;28;658380;-69
2023/09/08 10:05:53;;;;;;;8.15;5.50;;;28.50;66.80;;;;;;4414909;28;656525;-69
2023/09/08 10:08:40;;;;;;;14.60;5.65;;;28.10;62.50;;;;;;4384470;28;657299;-69
2023/09/08 10:11:29;;;;;;;10.18;5.25;;;28.30;68.20;;;;;;4390622;28;658418;-69
2023/09/08 10:14:17;;;;;;;11.77;5.00;;;28.50;66.70;;;;;;4420564;28;657663;-69
2023/09/08 10:17:05;;;;;;;9.23;5.03;;;28.50;62.50;;;;;;4381493;28;657497;-70
2023/09/08 10:19:52;;;;;;;14.25;5.03;;;28.60;60.70;;;;;;4416173;28;656538;-70
2023/09/08 10:22:43;;;;;;;12.55;5.32;;;28.10;57.90;;;;;;4396771;28;659097;-70
2023/09/08 10:25:30;;;;;;;10.33;5.13;;;28.30;62.60;;;;;;4384985;28;658255;-70
2023/09/08 10:28:17;;;;;;;9.10;5.10;;;28.60;63.30;;;;;;4398798;28;658197;-68
2023/09/08 10:31:05;;;;;;;9.00;4.72;;;28.60;61.20;;;;;;4425001;28;656098;-69
2023/09/08 10:33:53;;;;;;;9.70;5.03;;;28.40;57.70;;;;;;4405184;28;657488;-69
2023/09/08 10:36:40;;;;;;;11.13;5.07;;;28.70;59.80;;;;;;4414668;28;657141;-70
2023/09/08 10:39:35;;;;;;;7.20;4.78;;;28.70;56.60;;;;;;4400910;28;657696;-68
2023/09/08 10:42:25;;;;;;;8.50;5.05;;;28.60;58.00;;;;;;4357929;28;656288;-69
2023/09/08 10:45:16;;;;;;;9.75;4.95;;;28.90;58.60;;;;;;4378455;28;656774;-69
2023/09/08 10:48:03;;;;;;;19.98;5.60;;;29.10;59.90;;;;;;4392951;28;659118;-71
2023/09/08 10:50:51;;;;;;;12.10;5.72;;;28.90;55.10;;;;;;4412196;28;657428;-70
2023/09/08 10:53:38;;;;;;;7.10;4.70;;;29.00;59.20;;;;;;4393393;28;658230;-70
2023/09/08 10:56:30;;;;;;;11.32;4.68;;;29.10;56.50;;;;;;4415982;28;657132;-70
2023/09/08 10:59:18;;;;;;;14.63;5.38;;;29.30;54.70;;;;;;4394117;28;658539;-68
2023/09/08 11:02:05;;;;;;;8.52;5.50;;;29.30;57.90;;;;;;4413469;28;658450;-70
2023/09/08 11:04:53;;;;;;;10.70;5.10;;;29.10;59.20;;;;;;4403151;28;655941;-68
2023/09/08 11:07:40;;;;;;;9.02;5.50;;;29.20;58.00;;;;;;4412938;28;658015;-69
2023/09/08 11:10:27;;;;;;;11.32;5.65;;;29.40;56.20;;;;;;4390308;28;656807;-68
2023/09/08 11:13:16;;;;;;;9.90;5.47;;;29.60;55.80;;;;;;4406839;28;657989;-70
2023/09/08 11:16:03;;;;;;;9.13;5.47;;;29.80;55.10;;;;;;4390555;28;656365;-70
2023/09/08 11:18:52;;;;;;;12.63;5.38;;;29.80;54.00;;;;;;4415143;28;658069;-70
2023/09/08 11:21:39;;;;;;;9.63;5.55;;;29.80;55.50;;;;;;4400234;28;658905;-70
2023/09/08 11:24:26;;;;;;;9.52;5.32;;;29.70;57.70;;;;;;4412045;28;656434;-70
2023/09/08 11:27:13;;;;;;;11.98;5.50;;;29.70;53.40;;;;;;4394185;28;657670;-69
2023/09/08 11:30:04;;;;;;;10.75;5.30;;;29.90;52.20;;;;;;4402777;28;657925;-70
2023/09/08 11:32:51;;;;;;;9.52;5.72;;;29.70;54.80;;;;;;4397575;28;657608;-69
2023/09/08 11:35:39;;;;;;;10.57;5.65;;;29.60;54.00;;;;;;4406633;28;656563;-69
2023/09/08 11:38:27;;;;;;;7.45;5.28;;;29.90;58.80;;;;;;4398534;28;658099;-69
2023/09/08 11:41:14;;;;;;;7.93;5.22;;;30.00;55.20;;;;;;4395423;28;656862;-70
2023/09/08 11:44:01;;;;;;;13.25;5.22;;;30.40;52.60;;;;;;4410509;28;656832;-69
2023/09/08 11:46:50;;;;;;;8.25;5.25;;;30.40;52.90;;;;;;4390636;28;658039;-69
2023/09/08 11:49:38;;;;;;;8.07;4.90;;;30.70;51.50;;;;;;4407523;28;657053;-69
2023/09/08 11:52:25;;;;;;;8.55;4.85;;;30.70;54.10;;;;;;4428960;28;658233;-69
2023/09/08 11:55:13;;;;;;;11.20;5.50;;;30.70;52.00;;;;;;4419587;28;656938;-68
2023/09/08 11:58:00;;;;;;;11.88;5.57;;;30.70;53.70;;;;;;4428798;28;658831;-69
2023/09/08 12:00:49;;;;;;;8.70;4.88;;;29.90;52.50;;;;;;4405516;28;658232;-68
2023/09/08 12:03:51;;;;;;;10.63;4.90;;;30.20;51.20;;;;;;4414748;28;656572;-69
2023/09/08 12:06:40;;;;;;;9.48;5.25;;;30.70;52.40;;;;;;4366464;28;657855;-70
2023/09/08 12:09:28;;;;;;;10.32;5.30;;;30.60;49.30;;;;;;4404960;28;656877;-69
2023/09/08 12:12:15;;;;;;;10.98;5.07;;;30.50;49.40;;;;;;4406448;28;657944;-70
2023/09/08 12:15:03;;;;;;;17.70;5.63;;;30.60;51.30;;;;;;4391744;28;658598;-68
2023/09/08 12:17:50;;;;;;;15.80;5.93;;;30.40;51.70;;;;;;4404458;28;658323;-70
2023/09/08 12:20:39;;;;;;;8.88;5.45;;;31.00;50.90;;;;;;4392224;28;657519;-68
2023/09/08 12:23:27;;;;;;;10.98;5.38;;;31.20;51.00;;;;;;4410914;28;656721;-69
2023/09/08 12:26:14;;;;;;;14.20;5.30;;;30.90;49.10;;;;;;4388973;28;657768;-69
2023/09/08 12:29:01;;;;;;;12.13;5.28;;;30.70;49.10;;;;;;4403036;28;657869;-69
2023/09/08 12:31:48;;;;;;;11.05;5.30;;;31.00;48.80;;;;;;4384702;28;658568;-69
2023/09/08 12:34:36;;;;;;;9.63;6.25;;;30.50;49.10;;;;;;4408303;28;659172;-70
2023/09/08 12:37:27;;;;;;;15.15;5.95;;;30.40;48.30;;;;;;4392906;28;656293;-68
2023/09/08 12:40:15;;;;;;;12.43;5.65;;;30.50;54.50;;;;;;4370905;28;659403;-68
2023/09/08 12:43:03;;;;;;;14.43;6.20;;;30.70;53.40;;;;;;4398758;28;657334;-69
2023/09/08 12:45:50;;;;;;;15.90;5.85;;;31.10;49.40;;;;;;4432036;28;658630;-69
2023/09/08 12:48:37;;;;;;;12.65;5.88;;;31.00;50.00;;;;;;4402247;28;657568;-68
2023/09/08 12:51:25;;;;;;;9.48;5.53;;;31.10;49.10;;;;;;4414969;28;658405;-69
2023/09/08 12:54:13;;;;;;;9.45;5.53;;;30.70;50.30;;;;;;4408813;28;657036;-69
2023/09/08 12:57:00;;;;;;;12.38;5.32;;;30.60;49.10;;;;;;4406913;28;657045;-70
2023/09/08 12:59:48;;;;;;;10.73;5.50;;;30.50;49.60;;;;;;4401595;28;658149;-69
2023/09/08 13:02:35;;;;;;;14.15;5.57;;;31.00;49.80;;;;;;4428814;28;659494;-71
2023/09/08 13:05:22;;;;;;;8.25;5.53;;;30.80;49.60;;;;;;4372790;28;658758;-67
2023/09/08 13:08:11;;;;;;;12.52;5.55;;;30.70;48.40;;;;;;4393094;28;657578;-68
2023/09/08 13:10:59;;;;;;;14.40;5.68;;;31.00;50.00;;;;;;4366443;28;657536;-70
2023/09/08 13:13:46;;;;;;;16.67;5.70;;;31.00;47.90;;;;;;4392937;28;657212;-70
2023/09/08 13:16:34;;;;;;;14.10;5.57;;;31.00;47.80;;;;;;4371052;28;657609;-69
2023/09/08 13:19:21;;;;;;;8.63;5.30;;;30.90;49.10;;;;;;4392021;28;657936;-69
2023/09/08 13:22:08;;;;;;;11.55;4.70;;;30.80;47.90;;;;;;4368460;28;657002;-69
2023/09/08 13:24:55;;;;;;;10.43;5.38;;;30.90;47.30;;;;;;4392771;28;659325;-70
2023/09/08 13:27:44;;;;;;;9.15;4.97;;;31.10;46.40;;;;;;4368947;28;657311;-69
2023/09/08 13:30:31;;;;;;;9.38;4.78;;;31.00;46.80;;;;;;4387180;28;656370;-70
2023/09/08 13:33:18;;;;;;;9.75;4.80;;;31.30;45.60;;;;;;4364079;28;656653;-68
2023/09/08 13:36:06;;;;;;;7.65;4.78;;;31.60;45.80;;;;;;4400144;28;657468;-70
2023/09/08 13:38:53;;;;;;;15.00;4.53;;;31.60;45.10;;;;;;4368799;28;656314;-69
2023/09/08 13:41:48;;;;;;;12.00;5.13;;;31.60;45.30;;;;;;4383040;28;657856;-69
2023/09/08 13:44:36;;;;;;;7.83;4.40;;;31.70;45.20;;;;;;4345412;28;658033;-69
2023/09/08 13:47:24;;;;;;;8.88;4.78;;;31.50;45.10;;;;;;4359103;28;656802;-69
2023/09/08 13:50:11;;;;;;;8.60;5.38;;;31.20;46.00;;;;;;4384232;28;656493;-68
2023/09/08 13:52:58;;;;;;;13.05;5.28;;;31.30;46.20;;;;;;4375795;28;657763;-69
2023/09/08 13:55:46;;;;;;;8.05;4.68;;;31.00;45.60;;;;;;4393694;28;658370;-69
2023/09/08 13:58:33;;;;;;;8.50;4.88;;;30.90;46.30;;;;;;4373780;28;657281;-68
2023/09/08 14:01:21;;;;;;;9.43;5.50;;;31.00;46.10;;;;;;4397568;28;657595;-69
2023/09/08 14:04:09;;;;;;;14.87;5.40;;;30.70;44.80;;;;;;4388372;28;656817;-68
2023/09/08 14:06:56;;;;;;;8.55;5.00;;;31.00;47.80;;;;;;4413320;28;658554;-68
2023/09/08 14:09:43;;;;;;;13.88;5.32;;;31.10;46.00;;;;;;4391214;28;656475;-68